Time;durP1;ratioP1;P1;durP2;ratioP2;P2;SDS_P1;SDS_P2;PMS_P1;PMS_P2;Temp;Humidity;BMP_temperature;BMP_pressure;BME280_temperature;BME280_humidity;BME280_pressure;Samples;Min_cycle;Max_cycle;Signal;HPM_P1;HPM_P2
2023/05/06 00:01:39;;;;;;;1.80;1.40;;;;;;;12.94;100.00;97688.38;1702689;75;671938;-74
2023/05/06 00:04:14;;;;;;;1.60;1.30;;;;;;;12.89;100.00;97691.84;1675176;75;3763033;-75
2023/05/06 00:06:44;;;;;;;1.40;1.30;;;;;;;12.79;100.00;97692.06;1701448;75;680042;-76
2023/05/06 00:09:15;;;;;;;1.50;1.40;;;;;;;12.75;100.00;97688.78;1697954;75;1865343;-74
2023/05/06 00:11:46;;;;;;;1.95;1.85;;;;;;;12.68;100.00;97686.50;1701821;75;679354;-74
2023/05/06 00:14:16;;;;;;;1.50;1.40;;;;;;;12.62;100.00;97682.94;1709183;75;880062;-74
2023/05/06 00:16:46;;;;;;;2.10;1.50;;;;;;;12.64;100.00;97683.22;1689355;75;1710364;-73
2023/05/06 00:19:19;;;;;;;2.20;1.90;;;;;;;12.60;100.00;97682.69;1684464;75;2963814;-75
2023/05/06 00:21:50;;;;;;;2.00;1.80;;;;;;;12.64;100.00;97685.22;1675102;75;2877328;-75
2023/05/06 00:24:20;;;;;;;2.70;2.30;;;;;;;12.33;100.00;97695.72;1711057;75;754930;-74
2023/05/06 00:26:50;;;;;;;3.20;2.80;;;;;;;12.39;100.00;97693.03;1701547;75;681356;-74
2023/05/06 00:29:20;;;;;;;3.00;2.65;;;;;;;12.17;100.00;97688.09;1710958;75;687976;-73
2023/05/06 00:31:50;;;;;;;2.90;2.60;;;;;;;12.25;100.00;97685.66;1702321;75;674302;-75
2023/05/06 00:34:25;;;;;;;2.20;2.00;;;;;;;12.35;100.00;97687.75;1711872;75;671171;-76
2023/05/06 00:36:55;;;;;;;1.60;1.50;;;;;;;12.32;100.00;97694.22;1701649;75;691792;-74
2023/05/06 00:39:26;;;;;;;1.70;1.60;;;;;;;12.32;100.00;97687.97;1711158;75;677546;-76
2023/05/06 00:42:01;;;;;;;1.90;1.70;;;;;;;12.30;100.00;97690.44;1702034;75;674789;-74
2023/05/06 00:44:32;;;;;;;1.50;1.40;;;;;;;12.28;100.00;97699.16;1708675;75;944142;-74
2023/05/06 00:47:04;;;;;;;2.00;1.70;;;;;;;12.24;100.00;97700.63;1701115;75;738604;-76
2023/05/06 00:49:37;;;;;;;1.85;1.70;;;;;;;12.19;100.00;97698.56;1712279;75;671630;-76
2023/05/06 00:52:08;;;;;;;1.40;1.30;;;;;;;12.25;100.00;97700.13;1700724;75;756690;-74
2023/05/06 00:54:38;;;;;;;2.70;2.50;;;;;;;12.01;100.00;97696.94;1711982;75;670196;-75
2023/05/06 00:57:08;;;;;;;3.05;2.75;;;;;;;12.06;100.00;97693.47;1686583;75;1864941;-76
2023/05/06 00:59:39;;;;;;;2.40;2.10;;;;;;;12.17;100.00;97701.06;1712698;75;672281;-76
2023/05/06 01:02:09;;;;;;;2.35;1.95;;;;;;;12.18;100.00;97700.56;1701339;75;747426;-75
2023/05/06 01:04:43;;;;;;;2.10;1.90;;;;;;;12.15;100.00;97710.53;1709241;75;867076;-77
2023/05/06 01:07:26;;;;;;;1.90;1.70;;;;;;;12.08;100.00;97708.22;1699437;75;802626;-75
2023/05/06 01:10:05;;;;;;;1.40;1.30;;;;;;;12.09;100.00;97696.00;1689674;75;1900420;-75
2023/05/06 01:12:46;;;;;;;2.05;1.80;;;;;;;12.05;100.00;97709.19;1684193;75;2892214;-75
2023/05/06 01:15:24;;;;;;;1.80;1.60;;;;;;;12.06;100.00;97701.72;1703218;75;738835;-75
2023/05/06 01:17:56;;;;;;;1.40;1.30;;;;;;;12.05;100.00;97705.69;1701844;75;672983;-78
2023/05/06 01:20:29;;;;;;;1.55;1.45;;;;;;;11.97;100.00;97704.59;1711503;75;682898;-76
2023/05/06 01:23:00;;;;;;;1.40;1.30;;;;;;;11.95;100.00;97702.34;1702159;75;679443;-74
2023/05/06 01:25:33;;;;;;;1.55;1.45;;;;;;;11.97;100.00;97715.59;1709631;75;903206;-75
2023/05/06 01:28:03;;;;;;;1.60;1.50;;;;;;;11.99;100.00;97705.63;1701917;75;680944;-74
2023/05/06 01:30:46;;;;;;;2.10;1.45;;;;;;;11.92;100.00;97719.78;1712017;75;688903;-74
2023/05/06 01:33:26;;;;;;;2.70;2.50;;;;;;;11.72;100.00;97715.06;1697950;75;974616;-74
2023/05/06 01:36:05;;;;;;;2.60;2.40;;;;;;;11.87;100.00;97721.22;1703240;75;754855;-76
2023/05/06 01:38:44;;;;;;;1.80;1.70;;;;;;;11.90;100.00;97720.25;1707102;75;931362;-76
2023/05/06 01:41:20;;;;;;;1.90;1.80;;;;;;;11.85;100.00;97720.91;1703783;75;690065;-75
2023/05/06 01:43:51;;;;;;;1.60;1.40;;;;;;;11.88;100.00;97711.78;1686602;75;2701872;-77
2023/05/06 01:46:24;;;;;;;2.05;1.50;;;;;;;11.79;100.00;97714.63;1688652;75;1858031;-76
2023/05/06 01:48:58;;;;;;;1.30;1.20;;;;;;;11.86;100.00;97707.97;1706532;75;971946;-73
2023/05/06 01:51:28;;;;;;;1.40;1.30;;;;;;;11.88;100.00;97709.03;1701110;75;872210;-75
2023/05/06 01:53:59;;;;;;;1.70;1.60;;;;;;;11.89;100.00;97705.03;1707640;75;924545;-74
2023/05/06 01:56:32;;;;;;;1.40;1.30;;;;;;;11.80;100.00;97707.91;1699231;75;955993;-77
2023/05/06 01:59:02;;;;;;;1.70;1.60;;;;;;;11.79;100.00;97711.16;1708291;75;825733;-76
2023/05/06 02:01:32;;;;;;;1.55;1.45;;;;;;;11.86;100.00;97700.50;1702536;75;759181;-76
2023/05/06 02:04:02;;;;;;;2.25;1.70;;;;;;;11.93;100.00;97713.06;1706960;75;961213;-74
2023/05/06 02:06:33;;;;;;;2.30;2.10;;;;;;;11.75;100.00;97718.81;1702831;75;753091;-75
2023/05/06 02:09:03;;;;;;;3.15;2.85;;;;;;;11.66;100.00;97720.47;1710121;75;677396;-74
2023/05/06 02:11:37;;;;;;;2.60;2.40;;;;;;;11.82;100.00;97715.66;1703555;75;740399;-75
2023/05/06 02:14:07;;;;;;;2.30;2.10;;;;;;;11.90;100.00;97720.25;1710432;75;674932;-74
2023/05/06 02:16:37;;;;;;;2.30;2.10;;;;;;;11.95;100.00;97721.53;1699562;75;945075;-75
2023/05/06 02:19:07;;;;;;;2.20;2.00;;;;;;;11.96;100.00;97714.09;1710689;75;678101;-76
2023/05/06 02:21:37;;;;;;;2.30;2.10;;;;;;;11.93;100.00;97715.81;1699844;75;929591;-75
2023/05/06 02:24:08;;;;;;;2.20;2.00;;;;;;;11.96;100.00;97706.59;1708414;75;970327;-76
2023/05/06 02:26:42;;;;;;;2.40;2.20;;;;;;;12.01;100.00;97705.16;1702341;75;749626;-77
2023/05/06 02:29:12;;;;;;;2.20;2.00;;;;;;;12.02;100.00;97715.63;1711407;75;770381;-77
2023/05/06 02:31:43;;;;;;;1.90;1.70;;;;;;;12.13;100.00;97701.28;1701265;75;756248;-76
2023/05/06 02:34:13;;;;;;;1.65;1.55;;;;;;;12.13;100.00;97706.78;1709074;75;932905;-77
2023/05/06 02:36:43;;;;;;;1.40;1.30;;;;;;;12.18;100.00;97702.56;1701490;75;743285;-74
2023/05/06 02:39:13;;;;;;;1.50;1.40;;;;;;;12.15;100.00;97690.56;1712406;75;682721;-77
2023/05/06 02:41:46;;;;;;;1.40;1.30;;;;;;;12.19;100.00;97691.09;1701661;75;758370;-74
2023/05/06 02:44:16;;;;;;;1.50;1.30;;;;;;;12.21;100.00;97682.38;1712391;75;674773;-77
2023/05/06 02:46:46;;;;;;;1.65;1.55;;;;;;;12.22;100.00;97679.16;1700901;75;740989;-75
2023/05/06 02:49:16;;;;;;;1.40;1.30;;;;;;;12.22;100.00;97681.13;1710198;75;864518;-76
2023/05/06 02:51:47;;;;;;;2.30;2.00;;;;;;;12.12;100.00;97684.06;1700980;75;758337;-75
2023/05/06 02:54:17;;;;;;;2.90;2.70;;;;;;;11.96;100.00;97686.66;1711860;75;672998;-74
2023/05/06 02:56:50;;;;;;;2.60;2.40;;;;;;;12.09;100.00;97679.53;1701257;75;747752;-74
2023/05/06 02:59:20;;;;;;;2.60;2.40;;;;;;;12.09;100.00;97684.28;1710768;75;841112;-75
2023/05/06 03:01:51;;;;;;;2.25;2.05;;;;;;;12.03;100.00;97678.00;1701815;75;734410;-76
2023/05/06 03:04:21;;;;;;;2.60;2.40;;;;;;;12.00;100.00;97689.91;1711229;75;787617;-74
2023/05/06 03:06:51;;;;;;;3.10;2.80;;;;;;;11.92;100.00;97673.88;1697758;75;984016;-75
2023/05/06 03:09:21;;;;;;;2.45;2.15;;;;;;;12.05;100.00;97675.50;1712176;75;670771;-75
2023/05/06 03:11:54;;;;;;;2.20;2.00;;;;;;;12.05;100.00;97678.25;1700459;75;752675;-74
2023/05/06 03:14:24;;;;;;;2.10;1.90;;;;;;;11.97;100.00;97685.41;1695395;75;1976214;-73
2023/05/06 03:16:55;;;;;;;2.65;2.00;;;;;;;11.92;100.00;97695.84;1700159;75;754869;-73
2023/05/06 03:19:25;;;;;;;2.10;1.90;;;;;;;11.85;100.00;97688.00;1711107;75;673987;-72
2023/05/06 03:21:55;;;;;;;2.40;2.20;;;;;;;11.83;100.00;97693.22;1699278;75;789846;-74
2023/05/06 03:24:26;;;;;;;2.50;2.30;;;;;;;11.76;100.00;97693.66;1711425;75;689478;-75
2023/05/06 03:27:00;;;;;;;2.20;2.00;;;;;;;11.79;100.00;97700.19;1698281;75;760195;-73
2023/05/06 03:29:30;;;;;;;2.40;2.20;;;;;;;11.76;100.00;97699.16;1711262;75;685871;-76
2023/05/06 03:32:04;;;;;;;2.35;2.15;;;;;;;11.67;100.00;97683.59;1700419;75;750726;-72
2023/05/06 03:34:34;;;;;;;1.95;1.85;;;;;;;11.64;100.00;97689.28;1695738;75;1999249;-74
2023/05/06 03:37:05;;;;;;;4.80;2.00;;;;;;;11.71;100.00;97684.13;1698032;75;851058;-73
2023/05/06 03:39:35;;;;;;;1.90;1.80;;;;;;;11.72;100.00;97682.16;1711360;75;685768;-73
2023/05/06 03:42:08;;;;;;;1.95;1.75;;;;;;;11.63;100.00;97679.56;1700580;75;739923;-75
2023/05/06 03:44:39;;;;;;;1.70;1.60;;;;;;;11.62;100.00;97678.81;1710699;75;705392;-74
2023/05/06 03:47:09;;;;;;;1.60;1.50;;;;;;;11.66;100.00;97681.31;1698029;75;803368;-74
2023/05/06 03:49:40;;;;;;;2.00;1.50;;;;;;;11.57;100.00;97684.22;1708373;75;843552;-72
2023/05/06 03:52:10;;;;;;;2.40;1.80;;;;;;;11.58;100.00;97669.28;1685730;75;1913039;-74
2023/05/06 03:54:40;;;;;;;1.70;1.60;;;;;;;11.52;100.00;97674.72;1710584;75;672482;-74
2023/05/06 03:57:13;;;;;;;1.85;1.65;;;;;;;11.53;100.00;97676.19;1701458;75;738579;-73
2023/05/06 03:59:43;;;;;;;2.40;1.80;;;;;;;11.45;100.00;97672.38;1707836;75;862982;-75
2023/05/06 04:02:13;;;;;;;2.20;2.00;;;;;;;11.44;100.00;97676.34;1699693;75;863975;-75
2023/05/06 04:04:43;;;;;;;2.45;2.25;;;;;;;11.30;100.00;97681.44;1709752;75;696857;-75
2023/05/06 04:07:13;;;;;;;3.15;2.60;;;;;;;11.33;100.00;97673.47;1606560;75;8760204;-73
2023/05/06 04:09:44;;;;;;;2.20;2.00;;;;;;;11.40;100.00;97678.53;1710160;75;683378;-75
2023/05/06 04:12:16;;;;;;;3.60;2.20;;;;;;;11.45;100.00;97686.84;1703476;75;745415;-74
2023/05/06 04:14:47;;;;;;;1.80;1.70;;;;;;;11.45;100.00;97686.84;1710354;75;681715;-75
2023/05/06 04:17:17;;;;;;;1.90;1.75;;;;;;;11.45;100.00;97680.59;1702490;75;755808;-74
2023/05/06 04:19:47;;;;;;;2.20;2.00;;;;;;;11.42;100.00;97682.28;1708954;75;674990;-74
2023/05/06 04:22:17;;;;;;;2.60;2.40;;;;;;;11.39;100.00;97680.53;1699884;75;915482;-76
2023/05/06 04:24:48;;;;;;;2.60;2.40;;;;;;;11.48;100.00;97688.63;1709693;75;710266;-75
2023/05/06 04:27:20;;;;;;;2.15;1.95;;;;;;;11.56;100.00;97683.47;1689897;75;1753454;-78
2023/05/06 04:29:51;;;;;;;2.10;1.90;;;;;;;11.60;100.00;97686.75;1709390;75;684191;-74
2023/05/06 04:32:24;;;;;;;2.10;1.90;;;;;;;11.65;100.00;97679.81;1702288;75;724243;-73
2023/05/06 04:34:54;;;;;;;2.00;1.80;;;;;;;11.64;100.00;97673.59;1706121;75;966721;-77
2023/05/06 04:37:27;;;;;;;2.10;1.90;;;;;;;11.68;100.00;97665.88;1702560;75;755050;-74
2023/05/06 04:39:57;;;;;;;5.40;4.90;;;;;;;11.73;100.00;97678.91;1709727;75;678571;-77
2023/05/06 04:42:31;;;;;;;4.60;4.10;;;;;;;11.81;100.00;97679.25;1702983;64;3009132;-72
2023/05/06 04:45:01;;;;;;;3.60;3.25;;;;;;;11.85;100.00;97696.22;1706614;75;972384;-74
2023/05/06 04:47:31;;;;;;;11.30;10.05;;;;;;;11.91;100.00;97688.09;1702169;75;752223;-76
2023/05/06 04:50:01;;;;;;;8.80;7.90;;;;;;;11.89;100.00;97685.84;1709877;75;679712;-75
2023/05/06 04:52:32;;;;;;;6.20;5.60;;;;;;;11.93;100.00;97700.09;1703183;75;756662;-74
2023/05/06 04:55:02;;;;;;;5.40;4.90;;;;;;;11.97;100.00;97699.88;1709828;75;678701;-73
2023/05/06 04:57:36;;;;;;;5.65;5.15;;;;;;;11.96;100.00;97714.84;1702315;75;752315;-72
2023/05/06 05:00:07;;;;;;;5.10;4.60;;;;;;;12.09;100.00;97715.19;1707082;75;887712;-77
2023/05/06 05:02:39;;;;;;;8.25;5.75;;;;;;;12.04;100.00;97706.94;1701638;75;747106;-74
2023/05/06 05:05:10;;;;;;;8.00;6.60;;;;;;;12.11;100.00;97712.72;1708014;75;670945;-73
2023/05/06 05:07:40;;;;;;;12.60;11.00;;;;;;;12.23;100.00;97727.31;1700160;75;795821;-76
2023/05/06 05:10:12;;;;;;;8.70;7.70;;;;;;;12.17;100.00;97728.50;1707110;75;830469;-74
2023/05/06 05:12:45;;;;;;;6.60;5.90;;;;;;;12.31;100.00;97728.41;1688025;75;1883368;-76
2023/05/06 05:15:15;;;;;;;5.30;4.70;;;;;;;12.39;100.00;97725.19;1709710;75;676847;-75
2023/05/06 05:17:46;;;;;;;4.70;4.15;;;;;;;12.45;100.00;97723.25;1702212;75;754827;-75
2023/05/06 05:20:17;;;;;;;7.40;4.75;;;;;;;12.38;100.00;97737.44;1708529;75;757650;-74
2023/05/06 05:22:48;;;;;;;6.35;5.60;;;;;;;12.45;100.00;97723.25;1703246;75;745547;-73
2023/05/06 05:25:18;;;;;;;7.55;6.40;;;;;;;12.57;100.00;97722.09;1709513;75;694747;-75
2023/05/06 05:27:51;;;;;;;6.90;5.20;;;;;;;12.71;100.00;97731.47;1702125;75;750132;-74
2023/05/06 05:30:22;;;;;;;5.50;4.50;;;;;;;12.79;100.00;97730.53;1709190;75;686649;-72
2023/05/06 05:32:54;;;;;;;5.90;5.00;;;;;;;12.78;100.00;97723.53;1701060;75;771372;-76
2023/05/06 05:35:25;;;;;;;4.60;4.20;;;;;;;12.96;100.00;97722.41;1708117;75;826856;-78
2023/05/06 05:37:55;;;;;;;4.20;3.50;;;;;;;13.19;100.00;97728.03;1700927;75;749276;-73
2023/05/06 05:40:25;;;;;;;4.35;3.00;;;;;;;13.27;100.00;97729.09;1711316;75;672859;-74
2023/05/06 05:42:58;;;;;;;3.15;2.80;;;;;;;13.32;100.00;97725.59;1700323;75;756750;-77
2023/05/06 05:45:28;;;;;;;3.00;2.70;;;;;;;13.39;100.00;97722.38;1711496;75;679062;-73
2023/05/06 05:47:58;;;;;;;3.45;2.90;;;;;;;13.54;100.00;97722.22;1700518;75;753970;-75
2023/05/06 05:50:29;;;;;;;4.75;4.25;;;;;;;13.57;100.00;97726.72;1710104;75;700738;-75
2023/05/06 05:52:59;;;;;;;4.95;4.40;;;;;;;13.68;100.00;97731.50;1701014;75;731608;-76
2023/05/06 05:55:32;;;;;;;5.60;4.80;;;;;;;13.56;100.00;97738.22;1712350;75;676069;-75
2023/05/06 05:58:05;;;;;;;6.00;5.30;;;;;;;13.62;100.00;97741.75;1700032;75;758707;-77
2023/05/06 06:00:35;;;;;;;4.60;3.70;;;;;;;13.85;100.00;97735.09;1711480;75;695143;-76
2023/05/06 06:03:05;;;;;;;5.20;4.25;;;;;;;13.82;100.00;97744.31;1700635;75;751394;-75
2023/05/06 06:05:36;;;;;;;6.10;4.25;;;;;;;14.15;100.00;97744.91;1696395;75;1964020;-77
2023/05/06 06:08:06;;;;;;;8.40;7.00;;;;;;;13.90;100.00;97739.06;1700081;75;740463;-74
2023/05/06 06:10:37;;;;;;;8.15;6.95;;;;;;;13.98;100.00;97740.13;1684898;75;2942268;-75
2023/05/06 06:13:10;;;;;;;6.15;5.55;;;;;;;14.37;100.00;97749.69;1675009;75;2849838;-76
2023/05/06 06:15:55;;;;;;;4.70;4.30;;;;;;;14.59;100.00;97746.22;1711056;75;675209;-75
2023/05/06 06:18:25;;;;;;;7.10;5.50;;;;;;;14.50;100.00;97755.47;1699682;75;752113;-77
2023/05/06 06:20:56;;;;;;;5.65;5.05;;;;;;;14.90;100.00;97745.97;1708027;75;981728;-77
2023/05/06 06:23:26;;;;;;;6.85;5.70;;;;;;;14.87;100.00;97746.22;1700569;75;743274;-76
2023/05/06 06:25:56;;;;;;;5.80;5.25;;;;;;;14.84;100.00;97753.50;1697578;75;1838763;-73
2023/05/06 06:28:29;;;;;;;7.55;6.15;;;;;;;14.69;100.00;97753.00;1699946;75;753493;-76
2023/05/06 06:31:00;;;;;;;5.75;5.15;;;;;;;15.04;100.00;97746.22;1709904;75;782692;-75
2023/05/06 06:33:30;;;;;;;4.65;4.10;;;;;;;15.30;100.00;97748.66;1701089;75;758019;-75
2023/05/06 06:36:04;;;;;;;6.60;5.50;;;;;;;14.93;100.00;97746.22;1711739;75;685377;-74
2023/05/06 06:38:34;;;;;;;4.60;4.20;;;;;;;15.47;100.00;97741.09;1697595;75;951449;-76
2023/05/06 06:41:04;;;;;;;4.20;3.30;;;;;;;15.71;100.00;97748.78;1710514;75;680134;-76
2023/05/06 06:43:37;;;;;;;4.10;3.65;;;;;;;15.64;100.00;97748.56;1700838;75;737975;-74
2023/05/06 06:46:07;;;;;;;6.10;5.30;;;;;;;15.36;100.00;97748.66;1711811;75;676299;-76
2023/05/06 06:48:37;;;;;;;5.65;5.05;;;;;;;15.53;100.00;97747.31;1698836;75;743762;-75
2023/05/06 06:51:08;;;;;;;6.05;5.10;;;;;;;15.70;100.00;97749.28;1710908;75;758791;-73
2023/05/06 06:53:38;;;;;;;4.75;3.80;;;;;;;15.88;100.00;97750.72;1700228;75;742820;-75
2023/05/06 06:56:13;;;;;;;5.80;3.75;;;;;;;16.13;100.00;97740.53;1711322;75;704477;-74
2023/05/06 06:58:46;;;;;;;3.85;3.20;;;;;;;16.39;100.00;97746.41;1699913;75;747471;-72
2023/05/06 07:01:16;;;;;;;3.80;3.20;;;;;;;16.53;98.38;97749.34;1711038;75;678451;-74
2023/05/06 07:03:46;;;;;;;3.00;2.40;;;;;;;16.70;97.34;97746.44;1697509;75;802876;-77
2023/05/06 07:06:17;;;;;;;2.80;2.55;;;;;;;16.75;97.25;97740.84;1698451;75;1763982;-74
2023/05/06 07:08:47;;;;;;;2.45;2.20;;;;;;;16.95;95.29;97741.72;1700629;75;741032;-76
2023/05/06 07:11:17;;;;;;;3.55;2.90;;;;;;;17.00;97.09;97746.44;1710575;75;674398;-75
2023/05/06 07:13:50;;;;;;;4.55;3.15;;;;;;;17.17;93.96;97741.50;1700502;75;753833;-76
2023/05/06 07:16:20;;;;;;;3.10;2.70;;;;;;;17.31;92.03;97739.59;1710767;75;710467;-75
2023/05/06 07:18:52;;;;;;;3.00;2.60;;;;;;;17.38;91.93;97738.25;1699121;75;970931;-73
2023/05/06 07:21:22;;;;;;;4.35;3.40;;;;;;;17.25;89.54;97734.13;1710315;75;676256;-75
2023/05/06 07:23:52;;;;;;;5.15;3.10;;;;;;;17.52;87.71;97728.03;1701493;75;741004;-74
2023/05/06 07:26:23;;;;;;;4.50;3.65;;;;;;;17.67;86.31;97742.94;1709146;75;812063;-73
2023/05/06 07:28:56;;;;;;;3.30;2.85;;;;;;;17.81;86.88;97737.53;1701082;75;784433;-74
2023/05/06 07:31:26;;;;;;;2.75;2.40;;;;;;;18.02;85.37;97748.84;1709046;75;824679;-76
2023/05/06 07:33:57;;;;;;;2.90;2.30;;;;;;;18.03;81.36;97740.00;1701639;75;730144;-75
2023/05/06 07:36:27;;;;;;;2.40;2.10;;;;;;;18.35;81.32;97741.31;1697091;75;1685366;-76
2023/05/06 07:39:00;;;;;;;4.40;3.10;;;;;;;17.96;78.36;97748.91;1701947;75;737019;-74
2023/05/06 07:41:31;;;;;;;3.95;3.55;;;;;;;18.14;76.49;97732.81;1709757;75;676754;-73
2023/05/06 07:44:03;;;;;;;5.30;4.50;;;;;;;18.18;80.93;97742.28;1699869;75;897446;-75
2023/05/06 07:46:34;;;;;;;6.10;4.30;;;;;;;18.26;78.57;97745.22;1709363;75;673608;-74
2023/05/06 07:49:04;;;;;;;6.05;4.10;;;;;;;18.26;78.85;97740.44;1702494;75;742571;-73
2023/05/06 07:51:34;;;;;;;4.20;3.50;;;;;;;18.33;75.87;97736.31;1708499;75;698129;-73
2023/05/06 07:54:04;;;;;;;3.70;3.30;;;;;;;18.32;78.13;97743.13;1689572;75;1738361;-73
2023/05/06 07:56:34;;;;;;;3.50;2.90;;;;;;;18.50;78.11;97733.28;1708343;75;696301;-75
2023/05/06 07:59:07;;;;;;;8.60;3.80;;;;;;;18.42;74.67;97732.38;1687115;75;1972224;-74
2023/05/06 08:01:38;;;;;;;4.80;3.80;;;;;;;18.34;74.80;97726.72;1708034;75;777679;-77
2023/05/06 08:04:08;;;;;;;3.90;3.50;;;;;;;18.62;76.38;97733.84;1687939;75;1952968;-76
2023/05/06 08:06:38;;;;;;;3.75;3.10;;;;;;;18.74;75.07;97729.63;1708938;75;678945;-75
2023/05/06 08:09:08;;;;;;;4.25;3.60;;;;;;;18.64;74.04;97737.59;1689441;75;1794162;-73
2023/05/06 08:11:38;;;;;;;3.45;2.90;;;;;;;19.03;74.06;97732.69;1695666;75;1832848;-76
2023/05/06 08:14:11;;;;;;;6.60;2.85;;;;;;;19.11;73.87;97733.53;1701016;75;811699;-73
2023/05/06 08:16:41;;;;;;;5.40;3.80;;;;;;;19.42;75.89;97733.97;1706912;75;849776;-78
2023/05/06 08:19:11;;;;;;;5.80;4.55;;;;;;;19.24;72.19;97733.56;1702958;75;754290;-74
2023/05/06 08:21:41;;;;;;;4.90;4.05;;;;;;;19.42;72.15;97731.19;1709102;75;675631;-74
2023/05/06 08:24:12;;;;;;;4.10;3.40;;;;;;;19.60;71.11;97738.66;1702415;75;743776;-75
2023/05/06 08:26:43;;;;;;;3.60;2.90;;;;;;;19.85;71.38;97736.41;1709470;75;673568;-74
2023/05/06 08:29:15;;;;;;;4.00;3.50;;;;;;;19.87;71.87;97728.28;1703774;75;759707;-75
2023/05/06 08:31:46;;;;;;;4.50;3.50;;;;;;;20.16;71.16;97725.66;1710611;75;674551;-73
2023/05/06 08:34:17;;;;;;;5.30;4.20;;;;;;;20.10;70.65;97728.53;1700974;75;833110;-74
2023/05/06 08:36:50;;;;;;;5.00;3.80;;;;;;;20.03;70.37;97722.91;1709202;75;675311;-78
2023/05/06 08:39:21;;;;;;;4.55;4.00;;;;;;;20.05;68.90;97729.41;1702648;75;747750;-75
2023/05/06 08:41:54;;;;;;;7.55;4.20;;;;;;;20.00;69.18;97728.25;1708849;75;674164;-74
2023/05/06 08:44:28;;;;;;;5.50;4.20;;;;;;;20.14;69.02;97725.44;1688736;75;1852068;-73
2023/05/06 08:46:58;;;;;;;5.50;4.60;;;;;;;20.29;69.70;97724.84;1709810;75;674020;-75
2023/05/06 08:49:28;;;;;;;4.75;4.20;;;;;;;20.45;69.93;97732.06;1702728;75;755532;-76
2023/05/06 08:51:59;;;;;;;6.50;4.50;;;;;;;20.28;68.05;97731.69;1708590;75;736085;-75
2023/05/06 08:54:29;;;;;;;5.15;4.30;;;;;;;20.48;69.97;97727.44;1702562;75;757572;-75
2023/05/06 08:57:02;;;;;;;4.90;4.30;;;;;;;20.48;68.84;97724.66;1708875;75;677202;-75
2023/05/06 08:59:35;;;;;;;4.90;3.55;;;;;;;20.69;66.67;97722.66;1702267;75;745905;-73
2023/05/06 09:02:05;;;;;;;5.25;4.40;;;;;;;20.78;66.89;97719.41;1709534;75;679806;-76
2023/05/06 09:04:36;;;;;;;4.50;4.10;;;;;;;20.94;65.57;97725.81;1701579;75;750976;-74
2023/05/06 09:07:06;;;;;;;3.80;3.10;;;;;;;21.16;64.86;97723.72;1710634;75;676407;-77
2023/05/06 09:09:36;;;;;;;4.75;3.60;;;;;;;21.10;64.07;97714.78;1701802;75;736212;-77
2023/05/06 09:12:12;;;;;;;4.85;3.90;;;;;;;21.25;64.51;97718.41;1710038;75;681951;-77
2023/05/06 09:14:45;;;;;;;4.15;3.60;;;;;;;21.55;63.20;97719.91;1700621;75;755768;-75
2023/05/06 09:17:25;;;;;;;5.40;3.70;;;;;;;21.59;61.35;97711.19;1710268;75;725558;-76
2023/05/06 09:19:56;;;;;;;4.80;3.90;;;;;;;21.55;61.61;97705.97;1687159;75;1930210;-77
2023/05/06 09:22:28;;;;;;;4.70;4.20;;;;;;;21.62;60.62;97704.50;1710656;75;673203;-79
2023/05/06 09:24:59;;;;;;;4.15;3.60;;;;;;;21.67;60.29;97700.81;1699674;75;760888;-77
2023/05/06 09:27:32;;;;;;;3.50;3.10;;;;;;;21.76;60.19;97705.13;1710054;75;674666;-76
2023/05/06 09:30:08;;;;;;;5.05;3.20;;;;;;;21.86;60.29;97709.63;1699144;75;750815;-76
2023/05/06 09:32:40;;;;;;;4.60;3.75;;;;;;;21.97;58.43;97711.34;1703386;75;692718;-73
2023/05/06 09:35:11;;;;;;;3.70;3.10;;;;;;;22.21;58.06;97712.19;1708515;75;674711;-75
2023/05/06 09:37:41;;;;;;;4.50;3.70;;;;;;;22.50;58.00;97701.63;1701163;75;684055;-74
2023/05/06 09:40:13;;;;;;;7.05;4.65;;;;;;;22.43;56.84;97705.88;1708161;75;712299;-79
2023/05/06 09:42:45;;;;;;;4.80;3.80;;;;;;;22.81;57.25;97699.56;1702955;75;677780;-72
2023/05/06 09:45:19;;;;;;;5.00;3.60;;;;;;;22.64;56.28;97696.59;1708673;75;675164;-74
2023/05/06 09:47:52;;;;;;;4.00;2.80;;;;;;;22.71;55.46;97693.06;1702684;75;678194;-72
2023/05/06 09:50:24;;;;;;;4.70;3.60;;;;;;;22.67;55.85;97685.06;1708125;75;670622;-72
2023/05/06 09:52:54;;;;;;;4.00;3.20;;;;;;;22.90;54.94;97687.09;1701829;75;687152;-72
2023/05/06 09:55:27;;;;;;;3.50;3.20;;;;;;;23.07;53.75;97678.19;1708089;75;678239;-70
2023/05/06 09:57:58;;;;;;;3.90;2.80;;;;;;;23.34;53.43;97679.22;1701565;75;686135;-73
2023/05/06 10:00:33;;;;;;;2.70;2.50;;;;;;;23.45;52.39;97680.09;1707361;75;697052;-71
2023/05/06 10:03:04;;;;;;;3.70;2.65;;;;;;;23.30;52.44;97673.25;1701571;75;750854;-72
2023/05/06 10:05:37;;;;;;;3.40;2.50;;;;;;;23.88;51.84;97672.69;1708108;75;676666;-73
2023/05/06 10:08:08;;;;;;;3.00;2.45;;;;;;;23.99;50.64;97669.47;1701044;75;756728;-72
2023/05/06 10:10:43;;;;;;;2.50;2.30;;;;;;;24.05;50.23;97664.38;1707810;75;679029;-72
2023/05/06 10:13:15;;;;;;;3.30;2.55;;;;;;;24.16;50.36;97661.16;1701474;75;749829;-73
2023/05/06 10:15:50;;;;;;;3.35;2.35;;;;;;;24.29;50.12;97662.19;1707954;75;696848;-74
2023/05/06 10:18:23;;;;;;;2.95;2.35;;;;;;;24.32;50.47;97656.19;1700870;75;744513;-73
2023/05/06 10:20:54;;;;;;;2.80;2.50;;;;;;;24.19;50.23;97660.00;1708062;75;683533;-72
2023/05/06 10:23:30;;;;;;;3.35;2.40;;;;;;;24.56;50.17;97656.81;1701243;75;745823;-74
2023/05/06 10:26:08;;;;;;;6.15;2.30;;;;;;;24.63;49.32;97651.13;1699433;75;708103;-69
2023/05/06 10:28:43;;;;;;;3.50;2.60;;;;;;;24.86;48.83;97644.56;1710895;75;672477;-75
2023/05/06 10:31:17;;;;;;;3.80;2.30;;;;;;;24.42;48.52;97645.13;1700036;75;675156;-74
2023/05/06 10:33:53;;;;;;;3.35;2.40;;;;;;;24.60;49.40;97643.88;1709915;75;674872;-70
2023/05/06 10:36:26;;;;;;;3.10;2.70;;;;;;;24.54;49.35;97643.38;1699574;75;672853;-71
2023/05/06 10:38:59;;;;;;;3.10;2.60;;;;;;;24.56;49.19;97635.16;1710708;75;677414;-74
2023/05/06 10:41:31;;;;;;;3.25;2.45;;;;;;;24.47;47.88;97635.78;1698998;75;758727;-73
2023/05/06 10:44:01;;;;;;;2.50;2.20;;;;;;;24.34;47.57;97634.00;1710454;75;671512;-71
2023/05/06 10:46:34;;;;;;;2.50;2.20;;;;;;;24.41;47.34;97630.41;1698222;75;759735;-72
2023/05/06 10:49:20;;;;;;;2.10;1.90;;;;;;;24.54;45.85;97629.38;1710801;75;671558;-76
2023/05/06 10:51:51;;;;;;;2.35;2.15;;;;;;;24.51;47.24;97632.56;1697367;75;757847;-72
2023/05/06 10:54:27;;;;;;;2.00;1.80;;;;;;;24.66;47.26;97635.97;1710673;75;676344;-72
2023/05/06 10:57:12;;;;;;;3.25;2.30;;;;;;;24.83;46.34;97612.88;1698519;75;748959;-76
2023/05/06 10:59:48;;;;;;;3.00;1.85;;;;;;;25.62;46.42;97606.56;1702816;75;678347;-70
2023/05/06 11:02:23;;;;;;;2.60;1.90;;;;;;;25.60;45.06;97609.19;1708131;75;669559;-75
2023/05/06 11:05:02;;;;;;;2.40;2.10;;;;;;;25.61;45.67;97607.88;1702190;75;673201;-73
2023/05/06 11:07:33;;;;;;;2.70;1.75;;;;;;;25.96;45.10;97605.00;1707088;75;675487;-72
2023/05/06 11:10:08;;;;;;;2.55;1.85;;;;;;;25.81;44.87;97605.16;1709829;75;685318;-72
2023/05/06 11:12:49;;;;;;;2.40;2.00;;;;;;;25.93;45.94;97609.72;1700027;75;673034;-71
2023/05/06 11:15:42;;;;;;;2.20;1.80;;;;;;;25.98;43.60;97607.19;1710779;75;671968;-73
2023/05/06 11:18:48;;;;;;;3.30;1.70;;;;;;;25.97;44.06;97597.31;1697840;75;751305;-72
2023/05/06 11:21:42;;;;;;;2.10;1.80;;;;;;;25.69;44.07;97590.97;1700598;75;754606;-71
2023/05/06 11:24:16;;;;;;;2.10;1.90;;;;;;;25.59;43.61;97598.56;1702604;75;679027;-74
2023/05/06 11:26:46;;;;;;;2.90;1.80;;;;;;;24.93;44.55;97592.59;1707598;75;676295;-71
2023/05/06 11:29:19;;;;;;;2.50;1.50;;;;;;;25.29;44.25;97598.38;1702031;75;668434;-74
2023/05/06 11:31:50;;;;;;;3.50;2.20;;;;;;;24.94;44.96;97594.09;1708347;75;674958;-71
2023/05/06 11:34:34;;;;;;;3.25;1.50;;;;;;;24.97;44.14;97596.47;1701165;75;747637;-74
2023/05/06 11:37:08;;;;;;;2.70;1.60;;;;;;;25.37;43.94;97589.13;1699475;75;692814;-71
2023/05/06 11:39:39;;;;;;;1.85;1.30;;;;;;;25.51;43.31;97591.00;1711300;75;674589;-71
2023/05/06 11:42:10;;;;;;;1.45;1.25;;;;;;;25.41;43.35;97600.69;1701381;75;681774;-72